Littleton, NH (03561)

3:46 PM EST on December 09, 2016 (GMT -0500)
| | Change Station

Elev -9999 ft 0.00 °N, 0.00 °E | Updated 9 minutes ago

Overcast
Overcast
67 °F
Feels Like 67 °F
N
4
Wind Variable Wind from SE
Gusts mph

Today
High -- | Low -- °F
--% Chance of Precip.
Yesterday
High -- | Low -- °F
Precip. -- in
Pressure 29.99 in
Visibility 4.0 miles
Clouds Few 2500 ft
Scattered Clouds 2900 ft
Overcast 4700 ft
Dew Point 52 °F
Humidity 59%
Rainfall --
Snow Depth Not available.
7:11 AM 4:07 PM
Waxing Gibbous, 77% visible
METAR KHIE 091952Z AUTO 28010G20KT 4SM -SN FEW025 SCT029 OVC047 M06/M12 A2994 RMK AO2 SLP156 P0000 T10561117
Pressure 29.99 in
Visibility 4.0 miles
Clouds Few 2500 ft
Scattered Clouds 2900 ft
Overcast 4700 ft
Dew Point 52 °F
Humidity 59%
Rainfall --
Snow Depth Not available.
7:11 AM 4:07 PM
Waxing Gibbous, 77% visible
METAR KHIE 091952Z AUTO 28010G20KT 4SM -SN FEW025 SCT029 OVC047 M06/M12 A2994 RMK AO2 SLP156 P0000 T10561117

10-Day Weather Forecast

Almanac

Astronomy

Dec. 09, 2016 Rise Set
Actual Time
Civil Twilight
Nautical Twilight
Astronomical Twilight
Moon
Length of Visible Light
Length of Day
Tomorrow will be .
, % of the Moon is Illuminated

Today's Extremes

State Highs State Lows

Community

WunderPhotos

Upload Photos

1,956,517 photos uploaded!

WunderBlog® & News

Nearby

Air Quality

  Air Quality AQ Index Pollutant
Not available.

Snow Depth

Station Depth Elevation

Earthquake Activity

City Distance Mag. Time & Date
Minimum magnitude displayed is 2.5.

Coastal Water Temperatures

Place Temperature

Stations

Nearby Weather Stations

Station Location Temp. Windchill Dew Point Humidity Wind Precip. Elev Updated Type
                   

Watches & Warnings

There are currently no watches in effect.